sensor_id;sensor_type;location;lat;lon;timestamp;pressure;altitude;pressure_sealevel;temperature;humidity
79230;BME280;68663;49.122;17.544;2023-08-08T00:00:02;99317.13;;;23.68;56.20
79230;BME280;68663;49.122;17.544;2023-08-08T00:02:28;99317.56;;;23.67;56.14
79230;BME280;68663;49.122;17.544;2023-08-08T00:04:54;99313.94;;;23.66;56.10
79230;BME280;68663;49.122;17.544;2023-08-08T00:07:19;99312.34;;;23.65;55.83
79230;BME280;68663;49.122;17.544;2023-08-08T00:09:45;99321.22;;;23.64;56.06
79230;BME280;68663;49.122;17.544;2023-08-08T00:12:10;99313.56;;;23.64;55.96
79230;BME280;68663;49.122;17.544;2023-08-08T00:14:36;99314.78;;;23.63;55.74
79230;BME280;68663;49.122;17.544;2023-08-08T00:17:02;99316.81;;;23.63;55.67
79230;BME280;68663;49.122;17.544;2023-08-08T00:19:27;99316.81;;;23.63;56.01
79230;BME280;68663;49.122;17.544;2023-08-08T00:21:52;99311.97;;;23.63;56.20
79230;BME280;68663;49.122;17.544;2023-08-08T00:24:18;99307.91;;;23.64;55.83
79230;BME280;68663;49.122;17.544;2023-08-08T00:26:43;99311.97;;;23.63;55.89
79230;BME280;68663;49.122;17.544;2023-08-08T00:29:09;99311.97;;;23.63;56.15
79230;BME280;68663;49.122;17.544;2023-08-08T00:31:34;99305.09;;;23.64;56.08
79230;BME280;68663;49.122;17.544;2023-08-08T00:34:00;99313.56;;;23.64;56.40
79230;BME280;68663;49.122;17.544;2023-08-08T00:36:25;99315.16;;;23.65;56.24
79230;BME280;68663;49.122;17.544;2023-08-08T00:38:51;99320.81;;;23.65;55.83
79230;BME280;68663;49.122;17.544;2023-08-08T00:41:16;99324.84;;;23.64;56.05
79230;BME280;68663;49.122;17.544;2023-08-08T00:43:41;99322.03;;;23.64;56.32
79230;BME280;68663;49.122;17.544;2023-08-08T00:46:08;99320.00;;;23.65;56.15
79230;BME280;68663;49.122;17.544;2023-08-08T00:48:34;99316.38;;;23.64;56.47
79230;BME280;68663;49.122;17.544;2023-08-08T00:50:59;99316.81;;;23.63;56.34
79230;BME280;68663;49.122;17.544;2023-08-08T00:53:25;99323.69;;;23.62;55.99
79230;BME280;68663;49.122;17.544;2023-08-08T00:55:53;99325.72;;;23.61;56.20
79230;BME280;68663;49.122;17.544;2023-08-08T00:58:19;99316.88;;;23.59;56.00
79230;BME280;68663;49.122;17.544;2023-08-08T01:00:45;99320.91;;;23.58;55.97
79230;BME280;68663;49.122;17.544;2023-08-08T01:03:10;99327.41;;;23.55;55.99
79230;BME280;68663;49.122;17.544;2023-08-08T01:05:41;99335.47;;;23.57;56.16
79230;BME280;68663;49.122;17.544;2023-08-08T01:08:08;99329.38;;;23.58;56.19
79230;BME280;68663;49.122;17.544;2023-08-08T01:10:37;99333.81;;;23.59;55.93
79230;BME280;68663;49.122;17.544;2023-08-08T01:13:09;99333.00;;;23.59;56.41
79230;BME280;68663;49.122;17.544;2023-08-08T01:15:36;99338.66;;;23.59;55.92
79230;BME280;68663;49.122;17.544;2023-08-08T01:18:06;99344.28;;;23.59;56.03
79230;BME280;68663;49.122;17.544;2023-08-08T01:20:33;99338.22;;;23.60;56.08
79230;BME280;68663;49.122;17.544;2023-08-08T01:23:13;99345.09;;;23.59;56.42
79230;BME280;68663;49.122;17.544;2023-08-08T01:25:40;99341.03;;;23.60;56.30
79230;BME280;68663;49.122;17.544;2023-08-08T01:28:07;99345.09;;;23.59;56.01
79230;BME280;68663;49.122;17.544;2023-08-08T01:30:33;99341.03;;;23.60;55.92
79230;BME280;68663;49.122;17.544;2023-08-08T01:32:59;99343.06;;;23.60;55.92
79230;BME280;68663;49.122;17.544;2023-08-08T01:35:27;99339.44;;;23.59;56.22
79230;BME280;68663;49.122;17.544;2023-08-08T01:37:59;99343.50;;;23.58;56.01
79230;BME280;68663;49.122;17.544;2023-08-08T01:40:28;99341.91;;;23.57;56.21
79230;BME280;68663;49.122;17.544;2023-08-08T01:42:54;99343.94;;;23.57;56.34
79230;BME280;68663;49.122;17.544;2023-08-08T01:45:20;99350.00;;;23.55;56.42
79230;BME280;68663;49.122;17.544;2023-08-08T01:47:50;99347.56;;;23.54;56.23
79230;BME280;68663;49.122;17.544;2023-08-08T01:50:16;99345.53;;;23.54;56.14
79230;BME280;68663;49.122;17.544;2023-08-08T01:52:41;99339.53;;;23.52;56.16
79230;BME280;68663;49.122;17.544;2023-08-08T01:55:07;99343.59;;;23.51;56.00
79230;BME280;68663;49.122;17.544;2023-08-08T01:57:32;99342.34;;;23.52;56.45
79230;BME280;68663;49.122;17.544;2023-08-08T01:59:58;99350.03;;;23.51;56.27
79230;BME280;68663;49.122;17.544;2023-08-08T02:02:23;99346.78;;;23.53;56.13
79230;BME280;68663;49.122;17.544;2023-08-08T02:04:49;99347.56;;;23.54;56.12
79230;BME280;68663;49.122;17.544;2023-08-08T02:07:14;99346.78;;;23.53;56.05
79230;BME280;68663;49.122;17.544;2023-08-08T02:09:41;99341.94;;;23.54;56.16
79230;BME280;68663;49.122;17.544;2023-08-08T02:12:06;99344.75;;;23.54;55.96
79230;BME280;68663;49.122;17.544;2023-08-08T02:14:32;99349.59;;;23.53;56.33
79230;BME280;68663;49.122;17.544;2023-08-08T02:16:57;99348.38;;;23.54;56.14
79230;BME280;68663;49.122;17.544;2023-08-08T02:19:23;99363.31;;;23.55;56.27
79230;BME280;68663;49.122;17.544;2023-08-08T02:21:48;99364.50;;;23.54;56.50
79230;BME280;68663;49.122;17.544;2023-08-08T02:24:14;99358.84;;;23.54;55.95
79230;BME280;68663;49.122;17.544;2023-08-08T02:26:39;99362.47;;;23.54;56.25
79230;BME280;68663;49.122;17.544;2023-08-08T02:29:05;99360.50;;;23.51;56.28
79230;BME280;68663;49.122;17.544;2023-08-08T02:31:30;99356.88;;;23.50;56.49
79230;BME280;68663;49.122;17.544;2023-08-08T02:33:56;99358.91;;;23.50;56.14
79230;BME280;68663;49.122;17.544;2023-08-08T02:36:21;99373.03;;;23.50;56.09
79230;BME280;68663;49.122;17.544;2023-08-08T02:38:47;99374.25;;;23.49;56.38
79230;BME280;68663;49.122;17.544;2023-08-08T02:41:12;99377.50;;;23.47;56.46
79230;BME280;68663;49.122;17.544;2023-08-08T02:43:38;99380.31;;;23.47;56.27
79230;BME280;68663;49.122;17.544;2023-08-08T02:46:03;99380.31;;;23.47;56.06
79230;BME280;68663;49.122;17.544;2023-08-08T02:48:29;99382.72;;;23.49;56.51
79230;BME280;68663;49.122;17.544;2023-08-08T02:50:55;99382.72;;;23.49;56.17
79230;BME280;68663;49.122;17.544;2023-08-08T02:53:21;99371.84;;;23.47;56.42
79230;BME280;68663;49.122;17.544;2023-08-08T02:55:47;99378.28;;;23.48;56.22
79230;BME280;68663;49.122;17.544;2023-08-08T02:58:12;99373.44;;;23.48;56.14
79230;BME280;68663;49.122;17.544;2023-08-08T03:00:38;99382.72;;;23.49;56.06
79230;BME280;68663;49.122;17.544;2023-08-08T03:03:04;99382.72;;;23.49;56.01
79230;BME280;68663;49.122;17.544;2023-08-08T03:05:29;99379.91;;;23.49;56.10
79230;BME280;68663;49.122;17.544;2023-08-08T03:07:55;99379.91;;;23.49;56.23
79230;BME280;68663;49.122;17.544;2023-08-08T03:10:20;99382.72;;;23.49;56.06
79230;BME280;68663;49.122;17.544;2023-08-08T03:12:45;99385.53;;;23.49;56.38
79230;BME280;68663;49.122;17.544;2023-08-08T03:15:11;99391.19;;;23.49;56.48
79230;BME280;68663;49.122;17.544;2023-08-08T03:17:36;99390.81;;;23.47;56.26
79230;BME280;68663;49.122;17.544;2023-08-08T03:20:02;99393.63;;;23.47;56.41
79230;BME280;68663;49.122;17.544;2023-08-08T03:22:31;99386.44;;;23.42;56.59
79230;BME280;68663;49.122;17.544;2023-08-08T03:24:56;99392.88;;;23.43;57.02
79230;BME280;68663;49.122;17.544;2023-08-08T03:27:22;99397.72;;;23.42;57.11
79230;BME280;68663;49.122;17.544;2023-08-08T03:29:47;99399.75;;;23.42;57.23
79230;BME280;68663;49.122;17.544;2023-08-08T03:32:13;99398.53;;;23.43;56.71
79230;BME280;68663;49.122;17.544;2023-08-08T03:34:38;99400.13;;;23.44;56.65
79230;BME280;68663;49.122;17.544;2023-08-08T03:37:03;99401.72;;;23.45;56.80
79230;BME280;68663;49.122;17.544;2023-08-08T03:39:29;99408.59;;;23.44;56.81
79230;BME280;68663;49.122;17.544;2023-08-08T03:41:54;99401.72;;;23.45;56.43
79230;BME280;68663;49.122;17.544;2023-08-08T03:44:20;99400.50;;;23.46;56.42
79230;BME280;68663;49.122;17.544;2023-08-08T03:46:45;99400.50;;;23.46;56.59
79230;BME280;68663;49.122;17.544;2023-08-08T03:49:11;99403.31;;;23.46;56.34
79230;BME280;68663;49.122;17.544;2023-08-08T03:51:36;99409.75;;;23.46;56.19
79230;BME280;68663;49.122;17.544;2023-08-08T03:54:02;99415.41;;;23.46;56.04
79230;BME280;68663;49.122;17.544;2023-08-08T03:56:27;99408.16;;;23.45;56.20
79230;BME280;68663;49.122;17.544;2023-08-08T03:58:53;99414.59;;;23.46;56.30
79230;BME280;68663;49.122;17.544;2023-08-08T04:01:19;99420.25;;;23.46;55.95
79230;BME280;68663;49.122;17.544;2023-08-08T04:03:44;99419.03;;;23.47;56.11
79230;BME280;68663;49.122;17.544;2023-08-08T04:06:09;99424.28;;;23.45;56.23
79230;BME280;68663;49.122;17.544;2023-08-08T04:08:35;99429.13;;;23.44;56.23
79230;BME280;68663;49.122;17.544;2023-08-08T04:11:00;99432.38;;;23.43;55.98
79230;BME280;68663;49.122;17.544;2023-08-08T04:13:26;99429.56;;;23.43;56.07
79230;BME280;68663;49.122;17.544;2023-08-08T04:15:51;99425.16;;;23.42;56.05
79230;BME280;68663;49.122;17.544;2023-08-08T04:18:17;99420.72;;;23.41;56.09
79230;BME280;68663;49.122;17.544;2023-08-08T04:20:45;99432.00;;;23.41;55.89
79230;BME280;68663;49.122;17.544;2023-08-08T04:23:12;99438.03;;;23.39;55.93
79230;BME280;68663;49.122;17.544;2023-08-08T04:25:37;99444.50;;;23.40;56.04
79230;BME280;68663;49.122;17.544;2023-08-08T04:28:03;99440.47;;;23.41;55.63
79230;BME280;68663;49.122;17.544;2023-08-08T04:30:28;99442.06;;;23.42;56.09
79230;BME280;68663;49.122;17.544;2023-08-08T04:32:54;99442.06;;;23.42;55.83
79230;BME280;68663;49.122;17.544;2023-08-08T04:35:19;99448.50;;;23.42;55.90
79230;BME280;68663;49.122;17.544;2023-08-08T04:37:45;99446.91;;;23.41;55.89
79230;BME280;68663;49.122;17.544;2023-08-08T04:40:11;99442.88;;;23.42;55.78
79230;BME280;68663;49.122;17.544;2023-08-08T04:42:36;99443.66;;;23.43;55.99
79230;BME280;68663;49.122;17.544;2023-08-08T04:45:02;99446.50;;;23.43;55.50
79230;BME280;68663;49.122;17.544;2023-08-08T04:47:27;99449.31;;;23.43;55.76
79230;BME280;68663;49.122;17.544;2023-08-08T04:49:53;99446.50;;;23.43;55.86
79230;BME280;68663;49.122;17.544;2023-08-08T04:52:18;99444.47;;;23.43;55.73
79230;BME280;68663;49.122;17.544;2023-08-08T04:54:44;99454.16;;;23.42;55.79
79230;BME280;68663;49.122;17.544;2023-08-08T04:57:09;99456.19;;;23.42;55.92
79230;BME280;68663;49.122;17.544;2023-08-08T04:59:35;99455.38;;;23.41;55.69
79230;BME280;68663;49.122;17.544;2023-08-08T05:02:00;99461.41;;;23.40;55.69
79230;BME280;68663;49.122;17.544;2023-08-08T05:04:26;99469.09;;;23.39;55.63
79230;BME280;68663;49.122;17.544;2023-08-08T05:06:51;99463.44;;;23.39;55.56
79230;BME280;68663;49.122;17.544;2023-08-08T05:09:16;99457.41;;;23.37;55.75
79230;BME280;68663;49.122;17.544;2023-08-08T05:11:42;99462.25;;;23.37;55.71
79230;BME280;68663;49.122;17.544;2023-08-08T05:14:07;99461.84;;;23.38;55.60
79230;BME280;68663;49.122;17.544;2023-08-08T05:16:33;99461.03;;;23.38;55.44
79230;BME280;68663;49.122;17.544;2023-08-08T05:18:58;99468.28;;;23.39;55.47
79230;BME280;68663;49.122;17.544;2023-08-08T05:21:23;99460.63;;;23.39;55.26
79230;BME280;68663;49.122;17.544;2023-08-08T05:23:49;99463.03;;;23.41;55.52
79230;BME280;68663;49.122;17.544;2023-08-08T05:26:15;99457.41;;;23.41;55.35
79230;BME280;68663;49.122;17.544;2023-08-08T05:28:41;99466.25;;;23.43;55.47
79230;BME280;68663;49.122;17.544;2023-08-08T05:31:06;99460.97;;;23.45;55.27
79230;BME280;68663;49.122;17.544;2023-08-08T05:33:32;99456.56;;;23.44;55.25
79230;BME280;68663;49.122;17.544;2023-08-08T05:35:58;99452.50;;;23.45;55.25
79230;BME280;68663;49.122;17.544;2023-08-08T05:38:23;99464.97;;;23.47;55.02
79230;BME280;68663;49.122;17.544;2023-08-08T05:40:49;99464.56;;;23.49;55.19
79230;BME280;68663;49.122;17.544;2023-08-08T05:43:14;99462.94;;;23.48;55.13
79230;BME280;68663;49.122;17.544;2023-08-08T05:45:44;99466.16;;;23.50;55.02
79230;BME280;68663;49.122;17.544;2023-08-08T05:48:10;99479.03;;;23.51;55.43
79230;BME280;68663;49.122;17.544;2023-08-08T05:50:38;99472.97;;;23.52;55.31
79230;BME280;68663;49.122;17.544;2023-08-08T05:53:03;99473.78;;;23.53;55.23
79230;BME280;68663;49.122;17.544;2023-08-08T05:55:29;99481.44;;;23.52;56.35
79230;BME280;68663;49.122;17.544;2023-08-08T05:57:55;99469.72;;;23.54;57.66
79230;BME280;68663;49.122;17.544;2023-08-08T06:00:20;99461.25;;;23.54;56.74
79230;BME280;68663;49.122;17.544;2023-08-08T06:02:46;99467.72;;;23.55;56.41
79230;BME280;68663;49.122;17.544;2023-08-08T06:05:12;99451.59;;;23.55;56.91
79230;BME280;68663;49.122;17.544;2023-08-08T06:07:37;99464.06;;;23.58;55.95
79230;BME280;68663;49.122;17.544;2023-08-08T06:10:04;99460.44;;;23.57;55.77
79230;BME280;68663;49.122;17.544;2023-08-08T06:12:29;99471.72;;;23.57;54.88
79230;BME280;68663;49.122;17.544;2023-08-08T06:14:55;99468.53;;;23.55;55.34
79230;BME280;68663;49.122;17.544;2023-08-08T06:17:20;99471.72;;;23.57;56.36
79230;BME280;68663;49.122;17.544;2023-08-08T06:19:46;99465.31;;;23.53;54.57
79230;BME280;68663;49.122;17.544;2023-08-08T06:22:12;99468.13;;;23.53;53.63
79230;BME280;68663;49.122;17.544;2023-08-08T06:24:37;99469.72;;;23.54;53.71
79230;BME280;68663;49.122;17.544;2023-08-08T06:27:04;99479.00;;;23.55;52.97
79230;BME280;68663;49.122;17.544;2023-08-08T06:29:29;99495.13;;;23.54;52.97
79230;BME280;68663;49.122;17.544;2023-08-08T06:31:56;99485.91;;;23.50;51.79
79230;BME280;68663;49.122;17.544;2023-08-08T06:34:21;99493.16;;;23.51;52.20
79230;BME280;68663;49.122;17.544;2023-08-08T06:36:46;99493.53;;;23.53;51.91
79230;BME280;68663;49.122;17.544;2023-08-08T06:39:12;99504.00;;;23.52;51.76
79230;BME280;68663;49.122;17.544;2023-08-08T06:41:37;99493.16;;;23.51;51.93
79230;BME280;68663;49.122;17.544;2023-08-08T06:44:04;99483.09;;;23.50;51.63
79230;BME280;68663;49.122;17.544;2023-08-08T06:46:29;99487.13;;;23.49;51.95
79230;BME280;68663;49.122;17.544;2023-08-08T06:48:55;99485.09;;;23.49;51.99
79230;BME280;68663;49.122;17.544;2023-08-08T06:51:26;99498.41;;;23.49;51.79
79230;BME280;68663;49.122;17.544;2023-08-08T06:53:52;99499.22;;;23.49;51.97
79230;BME280;68663;49.122;17.544;2023-08-08T06:56:17;99491.16;;;23.48;51.98
79230;BME280;68663;49.122;17.544;2023-08-08T06:58:43;99491.16;;;23.48;52.13
79230;BME280;68663;49.122;17.544;2023-08-08T07:01:09;99491.53;;;23.50;52.28
79230;BME280;68663;49.122;17.544;2023-08-08T07:03:35;99486.31;;;23.48;52.23
79230;BME280;68663;49.122;17.544;2023-08-08T07:06:02;99488.34;;;23.48;52.82
79230;BME280;68663;49.122;17.544;2023-08-08T07:08:27;99492.78;;;23.49;52.75
79230;BME280;68663;49.122;17.544;2023-08-08T07:10:56;99494.78;;;23.48;52.69
79230;BME280;68663;49.122;17.544;2023-08-08T07:13:21;99494.00;;;23.48;53.11
79230;BME280;68663;49.122;17.544;2023-08-08T07:15:47;99492.41;;;23.47;53.07
79230;BME280;68663;49.122;17.544;2023-08-08T07:18:12;99498.41;;;23.49;53.39
79230;BME280;68663;49.122;17.544;2023-08-08T07:20:38;99504.84;;;23.49;53.29
79230;BME280;68663;49.122;17.544;2023-08-08T07:23:04;99494.00;;;23.48;53.47
79230;BME280;68663;49.122;17.544;2023-08-08T07:25:29;99487.97;;;23.46;53.34
79230;BME280;68663;49.122;17.544;2023-08-08T07:27:55;99487.16;;;23.45;53.19
79230;BME280;68663;49.122;17.544;2023-08-08T07:30:21;99479.13;;;23.44;53.55
79230;BME280;68663;49.122;17.544;2023-08-08T07:32:46;99472.25;;;23.45;53.47
79230;BME280;68663;49.122;17.544;2023-08-08T07:35:12;99467.84;;;23.44;53.50
79230;BME280;68663;49.122;17.544;2023-08-08T07:37:37;99461.41;;;23.43;53.47
79230;BME280;68663;49.122;17.544;2023-08-08T07:40:13;99473.91;;;23.42;53.33
79230;BME280;68663;49.122;17.544;2023-08-08T07:42:39;99471.88;;;23.43;53.58
79230;BME280;68663;49.122;17.544;2023-08-08T07:45:05;99479.13;;;23.44;53.81
79230;BME280;68663;49.122;17.544;2023-08-08T07:47:31;99474.28;;;23.44;53.35
79230;BME280;68663;49.122;17.544;2023-08-08T07:49:56;99472.25;;;23.45;53.39
79230;BME280;68663;49.122;17.544;2023-08-08T07:52:22;99475.88;;;23.45;53.57
79230;BME280;68663;49.122;17.544;2023-08-08T07:54:48;99469.44;;;23.45;53.40
79230;BME280;68663;49.122;17.544;2023-08-08T07:57:14;99476.69;;;23.46;53.63
79230;BME280;68663;49.122;17.544;2023-08-08T07:59:39;99481.53;;;23.45;53.71
79230;BME280;68663;49.122;17.544;2023-08-08T08:02:05;99485.16;;;23.46;53.64
79230;BME280;68663;49.122;17.544;2023-08-08T08:04:31;99482.31;;;23.46;53.97
79230;BME280;68663;49.122;17.544;2023-08-08T08:06:56;99482.31;;;23.46;54.01
79230;BME280;68663;49.122;17.544;2023-08-08T08:09:22;99477.09;;;23.44;54.04
79230;BME280;68663;49.122;17.544;2023-08-08T08:11:47;99481.94;;;23.44;53.83
79230;BME280;68663;49.122;17.544;2023-08-08T08:14:13;99490.41;;;23.44;53.71
79230;BME280;68663;49.122;17.544;2023-08-08T08:16:38;99486.00;;;23.43;53.89
79230;BME280;68663;49.122;17.544;2023-08-08T08:19:04;99486.78;;;23.43;54.13
79230;BME280;68663;49.122;17.544;2023-08-08T08:21:29;99478.75;;;23.42;53.82
79230;BME280;68663;49.122;17.544;2023-08-08T08:23:55;99484.00;;;23.40;53.95
79230;BME280;68663;49.122;17.544;2023-08-08T08:26:20;99486.81;;;23.40;54.04
79230;BME280;68663;49.122;17.544;2023-08-08T08:28:46;99485.63;;;23.41;54.25
79230;BME280;68663;49.122;17.544;2023-08-08T08:31:11;99484.41;;;23.42;54.00
79230;BME280;68663;49.122;17.544;2023-08-08T08:33:36;99485.63;;;23.41;54.13
79230;BME280;68663;49.122;17.544;2023-08-08T08:36:02;99477.16;;;23.41;53.77
79230;BME280;68663;49.122;17.544;2023-08-08T08:38:28;99475.94;;;23.42;53.84
79230;BME280;68663;49.122;17.544;2023-08-08T08:40:56;99479.97;;;23.41;53.88
79230;BME280;68663;49.122;17.544;2023-08-08T08:43:21;99483.97;;;23.43;54.02
79230;BME280;68663;49.122;17.544;2023-08-08T08:45:50;99475.50;;;23.43;54.01
79230;BME280;68663;49.122;17.544;2023-08-08T08:48:17;99473.47;;;23.44;53.94
79230;BME280;68663;49.122;17.544;2023-08-08T08:50:45;99472.25;;;23.45;54.06
79230;BME280;68663;49.122;17.544;2023-08-08T08:53:12;99466.19;;;23.46;54.16
79230;BME280;68663;49.122;17.544;2023-08-08T08:55:39;99475.03;;;23.48;54.27
79230;BME280;68663;49.122;17.544;2023-08-08T08:58:05;99477.06;;;23.48;54.15
79230;BME280;68663;49.122;17.544;2023-08-08T09:00:31;99468.59;;;23.48;54.29
79230;BME280;68663;49.122;17.544;2023-08-08T09:02:56;99462.16;;;23.47;54.12
79230;BME280;68663;49.122;17.544;2023-08-08T09:05:24;99471.84;;;23.46;53.75
79230;BME280;68663;49.122;17.544;2023-08-08T09:07:50;99459.75;;;23.46;54.23
79230;BME280;68663;49.122;17.544;2023-08-08T09:10:17;99471.84;;;23.46;53.71
79230;BME280;68663;49.122;17.544;2023-08-08T09:12:43;99464.59;;;23.45;53.89
79230;BME280;68663;49.122;17.544;2023-08-08T09:15:09;99458.16;;;23.45;54.04
79230;BME280;68663;49.122;17.544;2023-08-08T09:17:35;99458.16;;;23.45;54.22
79230;BME280;68663;49.122;17.544;2023-08-08T09:20:01;99467.84;;;23.44;53.94
79230;BME280;68663;49.122;17.544;2023-08-08T09:22:27;99475.88;;;23.45;54.11
79230;BME280;68663;49.122;17.544;2023-08-08T09:24:54;99462.19;;;23.44;54.34
79230;BME280;68663;49.122;17.544;2023-08-08T09:27:20;99470.25;;;23.45;53.88
79230;BME280;68663;49.122;17.544;2023-08-08T09:29:46;99454.09;;;23.46;54.15
79230;BME280;68663;49.122;17.544;2023-08-08T09:32:11;99460.56;;;23.46;53.98
79230;BME280;68663;49.122;17.544;2023-08-08T09:34:41;99457.72;;;23.46;54.19
79230;BME280;68663;49.122;17.544;2023-08-08T09:37:07;99463.38;;;23.46;54.07
79230;BME280;68663;49.122;17.544;2023-08-08T09:39:33;99468.59;;;23.48;54.04
79230;BME280;68663;49.122;17.544;2023-08-08T09:41:59;99469.41;;;23.48;54.06
79230;BME280;68663;49.122;17.544;2023-08-08T09:44:26;99467.38;;;23.49;54.13
79230;BME280;68663;49.122;17.544;2023-08-08T09:46:55;99461.72;;;23.49;54.19
79230;BME280;68663;49.122;17.544;2023-08-08T09:49:21;99458.91;;;23.49;53.93
79230;BME280;68663;49.122;17.544;2023-08-08T09:51:47;99456.88;;;23.49;54.11
79230;BME280;68663;49.122;17.544;2023-08-08T09:54:14;99448.41;;;23.49;54.28
79230;BME280;68663;49.122;17.544;2023-08-08T09:56:39;99462.94;;;23.48;54.07
79230;BME280;68663;49.122;17.544;2023-08-08T09:59:05;99453.25;;;23.49;54.17
79230;BME280;68663;49.122;17.544;2023-08-08T10:01:31;99457.69;;;23.50;53.92
79230;BME280;68663;49.122;17.544;2023-08-08T10:03:57;99452.84;;;23.50;53.84
79230;BME280;68663;49.122;17.544;2023-08-08T10:06:23;99451.63;;;23.51;54.06
79230;BME280;68663;49.122;17.544;2023-08-08T10:08:49;99449.59;;;23.52;53.73
79230;BME280;68663;49.122;17.544;2023-08-08T10:11:15;99445.16;;;23.55;53.97
79230;BME280;68663;49.122;17.544;2023-08-08T10:13:48;99439.50;;;23.55;53.98
79230;BME280;68663;49.122;17.544;2023-08-08T10:16:16;99446.31;;;23.57;54.03
79230;BME280;68663;49.122;17.544;2023-08-08T10:18:41;99449.94;;;23.58;53.64
79230;BME280;68663;49.122;17.544;2023-08-08T10:21:07;99449.16;;;23.57;54.58
79230;BME280;68663;49.122;17.544;2023-08-08T10:23:38;99439.50;;;23.55;52.99
79230;BME280;68663;49.122;17.544;2023-08-08T10:26:05;99434.25;;;23.53;52.73
79230;BME280;68663;49.122;17.544;2023-08-08T10:28:34;99429.84;;;23.52;52.48
79230;BME280;68663;49.122;17.544;2023-08-08T10:31:00;99430.63;;;23.52;52.85
79230;BME280;68663;49.122;17.544;2023-08-08T10:33:38;99435.47;;;23.56;54.85
79230;BME280;68663;49.122;17.544;2023-08-08T10:38:49;99436.47;;;23.69;57.44
79230;BME280;68663;49.122;17.544;2023-08-08T10:41:20;99428.06;;;23.65;52.67
79230;BME280;68663;49.122;17.544;2023-08-08T10:43:53;99428.06;;;23.65;53.46
79230;BME280;68663;49.122;17.544;2023-08-08T10:46:31;99427.22;;;23.68;52.26
79230;BME280;68663;49.122;17.544;2023-08-08T10:49:00;99420.78;;;23.68;53.53
79230;BME280;68663;49.122;17.544;2023-08-08T10:51:35;99418.31;;;23.70;52.85
79230;BME280;68663;49.122;17.544;2023-08-08T10:56:54;99419.50;;;23.72;53.80
79230;BME280;68663;49.122;17.544;2023-08-08T10:59:22;99413.84;;;23.72;52.33
79230;BME280;68663;49.122;17.544;2023-08-08T11:01:49;99416.66;;;23.72;51.60
79230;BME280;68663;49.122;17.544;2023-08-08T11:04:18;99415.88;;;23.72;51.38
79230;BME280;68663;49.122;17.544;2023-08-08T11:06:45;99423.09;;;23.73;51.15
79230;BME280;68663;49.122;17.544;2023-08-08T11:09:13;99420.72;;;23.71;50.69
79230;BME280;68663;49.122;17.544;2023-08-08T11:11:39;99420.72;;;23.71;50.82
79230;BME280;68663;49.122;17.544;2023-08-08T11:14:23;99415.06;;;23.71;50.63
79230;BME280;68663;49.122;17.544;2023-08-08T11:16:50;99407.81;;;23.70;50.58
79230;BME280;68663;49.122;17.544;2023-08-08T11:19:16;99411.06;;;23.69;50.31
79230;BME280;68663;49.122;17.544;2023-08-08T11:21:45;99413.09;;;23.68;49.92
79230;BME280;68663;49.122;17.544;2023-08-08T11:24:12;99403.03;;;23.67;49.58
79230;BME280;68663;49.122;17.544;2023-08-08T11:26:39;99410.28;;;23.68;49.45
79230;BME280;68663;49.122;17.544;2023-08-08T11:29:06;99412.72;;;23.66;49.26
79230;BME280;68663;49.122;17.544;2023-08-08T11:31:36;99409.91;;;23.66;49.54
79230;BME280;68663;49.122;17.544;2023-08-08T11:34:01;99398.63;;;23.66;49.47
79230;BME280;68663;49.122;17.544;2023-08-08T11:36:31;99405.47;;;23.65;49.83
79230;BME280;68663;49.122;17.544;2023-08-08T11:38:59;99403.84;;;23.68;49.56
79230;BME280;68663;49.122;17.544;2023-08-08T11:41:25;99405.06;;;23.67;49.30
79230;BME280;68663;49.122;17.544;2023-08-08T11:43:52;99401.44;;;23.66;48.72
79230;BME280;68663;49.122;17.544;2023-08-08T11:46:18;99392.53;;;23.68;48.67
79230;BME280;68663;49.122;17.544;2023-08-08T11:48:47;99393.34;;;23.68;48.70
79230;BME280;68663;49.122;17.544;2023-08-08T11:51:15;99396.97;;;23.69;48.81
79230;BME280;68663;49.122;17.544;2023-08-08T11:53:51;99381.25;;;23.68;48.47
79230;BME280;68663;49.122;17.544;2023-08-08T11:56:19;99382.84;;;23.69;48.56
79230;BME280;68663;49.122;17.544;2023-08-08T11:58:44;99372.34;;;23.69;49.57
79230;BME280;68663;49.122;17.544;2023-08-08T12:01:10;99369.91;;;23.71;53.07
79230;BME280;68663;49.122;17.544;2023-08-08T12:03:39;99362.66;;;23.70;53.24
79230;BME280;68663;49.122;17.544;2023-08-08T12:06:14;99365.84;;;23.72;53.00
79230;BME280;68663;49.122;17.544;2023-08-08T12:08:44;99361.00;;;23.73;51.68
79230;BME280;68663;49.122;17.544;2023-08-08T12:11:10;99361.81;;;23.73;50.74
79230;BME280;68663;49.122;17.544;2023-08-08T12:13:37;99364.25;;;23.71;49.21
79230;BME280;68663;49.122;17.544;2023-08-08T12:16:05;99359.47;;;23.68;50.04
79230;BME280;68663;49.122;17.544;2023-08-08T12:18:32;99363.03;;;23.72;51.01
79230;BME280;68663;49.122;17.544;2023-08-08T12:20:57;99349.34;;;23.71;50.96
79230;BME280;68663;49.122;17.544;2023-08-08T12:23:26;99350.94;;;23.72;50.51
79230;BME280;68663;49.122;17.544;2023-08-08T12:25:52;99352.97;;;23.71;49.38
79230;BME280;68663;49.122;17.544;2023-08-08T12:28:17;99342.91;;;23.70;49.26
79230;BME280;68663;49.122;17.544;2023-08-08T12:30:42;99348.53;;;23.70;49.27
79230;BME280;68663;49.122;17.544;2023-08-08T12:33:08;99348.97;;;23.69;49.86
79230;BME280;68663;49.122;17.544;2023-08-08T12:35:34;99351.38;;;23.70;51.66
79230;BME280;68663;49.122;17.544;2023-08-08T12:37:59;99348.53;;;23.70;51.02
79230;BME280;68663;49.122;17.544;2023-08-08T12:40:24;99351.38;;;23.70;49.39
79230;BME280;68663;49.122;17.544;2023-08-08T12:42:50;99345.34;;;23.68;49.98
79230;BME280;68663;49.122;17.544;2023-08-08T12:45:16;99343.75;;;23.67;50.31
79230;BME280;68663;49.122;17.544;2023-08-08T12:47:43;99351.75;;;23.72;50.92
79230;BME280;68663;49.122;17.544;2023-08-08T12:50:09;99345.59;;;23.77;52.58